createdAt,value
2018-09-23T00:01:24.525Z,101108.95
2018-09-23T00:03:52.797Z,101103.34
2018-09-23T00:06:21.082Z,101102.87
2018-09-23T00:08:49.347Z,101105.63
2018-09-23T00:11:17.613Z,101103.03
2018-09-23T00:13:45.901Z,101103.98
2018-09-23T00:16:14.202Z,101091.59
2018-09-23T00:18:42.461Z,101081.27
2018-09-23T00:21:10.697Z,101085.02
2018-09-23T00:23:38.952Z,101080.38
2018-09-23T00:26:07.233Z,101065.75
2018-09-23T00:28:35.497Z,101056.69
2018-09-23T00:31:03.747Z,101051.58
2018-09-23T00:33:32.092Z,101047.73
2018-09-23T00:36:00.366Z,101055.85
2018-09-23T00:38:28.670Z,101063.49
2018-09-23T00:40:56.942Z,101063.66
2018-09-23T00:43:25.237Z,101072.68
2018-09-23T00:45:53.489Z,101065.45
2018-09-23T00:48:21.744Z,101062.09
2018-09-23T00:50:50.035Z,101057.87
2018-09-23T00:53:18.333Z,101067.72
2018-09-23T00:55:46.563Z,101057.95
2018-09-23T00:58:14.826Z,101050.37
2018-09-23T01:00:43.177Z,101046.97
2018-09-23T01:03:11.441Z,101044.80
2018-09-23T01:05:39.692Z,101055.84
2018-09-23T01:08:07.924Z,101045.11
2018-09-23T01:10:36.180Z,101033.01
2018-09-23T01:13:04.497Z,101029.83
2018-09-23T01:15:32.774Z,101027.70
2018-09-23T01:18:01.014Z,101021.58
2018-09-23T01:20:29.352Z,101021.02
2018-09-23T01:22:57.609Z,101026.06
2018-09-23T01:25:25.873Z,101014.55
2018-09-23T01:27:54.156Z,101002.56
2018-09-23T01:30:22.429Z,101009.50
2018-09-23T01:32:50.764Z,101016.82
2018-09-23T01:35:19.040Z,101018.11
2018-09-23T01:37:47.281Z,101012.60
2018-09-23T01:40:15.562Z,101015.66
2018-09-23T01:42:43.829Z,101011.56
2018-09-23T01:45:12.109Z,101013.81
2018-09-23T01:47:40.401Z,101014.77
2018-09-23T01:50:08.688Z,101013.98
2018-09-23T01:52:36.944Z,101003.22
2018-09-23T01:55:05.497Z,100990.20
2018-09-23T01:57:33.745Z,100982.29
2018-09-23T02:00:02.009Z,100973.19
2018-09-23T02:02:30.250Z,100965.02
2018-09-23T02:04:58.521Z,100967.54
2018-09-23T02:07:26.769Z,100964.53
2018-09-23T02:09:55.033Z,100965.81
2018-09-23T02:12:23.322Z,100970.50
2018-09-23T02:14:51.585Z,100975.58
2018-09-23T02:17:19.837Z,100968.72
2018-09-23T02:19:48.125Z,100975.23
2018-09-23T02:22:16.360Z,100967.95
2018-09-23T02:24:44.609Z,100969.27
2018-09-23T02:27:12.893Z,100968.40
2018-09-23T02:29:41.138Z,100960.76
2018-09-23T02:32:09.398Z,100959.88
2018-09-23T02:34:37.669Z,100956.00
2018-09-23T02:37:05.942Z,100944.55
2018-09-23T02:39:34.213Z,100944.08
2018-09-23T02:42:02.526Z,100941.47
2018-09-23T02:44:30.805Z,100936.31
2018-09-23T02:46:59.078Z,100933.44
2018-09-23T02:49:27.328Z,100922.75
2018-09-23T02:51:55.619Z,100924.55
2018-09-23T02:54:23.927Z,100924.21
2018-09-23T02:56:52.195Z,100921.75
2018-09-23T02:59:20.457Z,100917.53
2018-09-23T03:01:48.733Z,100917.96
2018-09-23T03:04:16.992Z,100917.41
2018-09-23T03:06:45.269Z,100913.98
2018-09-23T03:09:13.527Z,100908.86
2018-09-23T03:11:41.829Z,100909.29
2018-09-23T03:14:10.077Z,100908.02
2018-09-23T03:16:38.384Z,100898.92
2018-09-23T03:19:06.622Z,100900.23
2018-09-23T03:21:34.897Z,100900.39
2018-09-23T03:24:03.193Z,100898.33
2018-09-23T03:26:33.180Z,100885.06
2018-09-23T03:29:02.175Z,100885.52
2018-09-23T03:31:31.149Z,100886.34
2018-09-23T03:34:00.091Z,100889.27
2018-09-23T03:36:29.225Z,100891.90
2018-09-23T03:38:58.073Z,100884.72
2018-09-23T03:41:27.231Z,100882.16
2018-09-23T03:43:56.609Z,100882.56
2018-09-23T03:46:25.716Z,100882.20
2018-09-23T03:48:55.818Z,100880.09
2018-09-23T03:51:24.768Z,100879.75
2018-09-23T03:53:53.580Z,100878.91
2018-09-23T03:56:22.616Z,100875.88
2018-09-23T03:58:51.537Z,100860.91
2018-09-23T04:01:20.319Z,100861.38
2018-09-23T04:03:50.550Z,100855.77
2018-09-23T04:06:19.671Z,100843.75
2018-09-23T04:08:48.629Z,100849.33
2018-09-23T04:11:17.622Z,100844.20
2018-09-23T04:13:46.587Z,100836.52
2018-09-23T04:16:15.518Z,100825.44
2018-09-23T04:18:44.479Z,100823.30
2018-09-23T04:21:13.443Z,100813.52
2018-09-23T04:23:42.221Z,100796.84
2018-09-23T04:26:11.516Z,100795.91
2018-09-23T04:28:40.548Z,100775.87
2018-09-23T04:31:09.456Z,100778.86
2018-09-23T04:33:38.680Z,100776.72
2018-09-23T04:36:07.762Z,100789.56
2018-09-23T04:38:36.825Z,100783.56
2018-09-23T04:41:05.920Z,100772.02
2018-09-23T04:43:34.910Z,100785.30
2018-09-23T04:46:03.908Z,100787.04
2018-09-23T04:48:32.898Z,100803.73
2018-09-23T04:51:01.901Z,100811.00
2018-09-23T04:53:30.940Z,100820.00
2018-09-23T04:55:59.922Z,100808.88
2018-09-23T04:58:28.662Z,100808.89
2018-09-23T05:00:57.306Z,100799.91
2018-09-23T05:03:25.887Z,100804.20
2018-09-23T05:05:55.265Z,100800.79
2018-09-23T05:08:24.547Z,100793.50
2018-09-23T05:10:53.635Z,100790.06
2018-09-23T05:13:22.637Z,100790.92
2018-09-23T05:15:51.652Z,100787.90
2018-09-23T05:18:20.731Z,100795.19
2018-09-23T05:20:49.535Z,100784.44
2018-09-23T05:23:18.446Z,100772.05
2018-09-23T05:25:47.340Z,100770.74
2018-09-23T05:28:16.992Z,100779.34
2018-09-23T05:30:45.917Z,100783.20
2018-09-23T05:33:14.963Z,100783.64
2018-09-23T05:35:43.959Z,100780.23
2018-09-23T05:38:12.498Z,100763.97
2018-09-23T05:40:41.718Z,100768.67
2018-09-23T05:43:10.341Z,100765.25
2018-09-23T05:45:39.332Z,100768.25
2018-09-23T05:48:07.681Z,100763.13
2018-09-23T05:50:36.025Z,100764.35
2018-09-23T05:53:04.376Z,100778.00
2018-09-23T05:55:32.663Z,100780.92
2018-09-23T05:58:01.013Z,100783.12
2018-09-23T06:00:31.779Z,100781.44
2018-09-23T06:03:00.120Z,100784.06
2018-09-23T06:05:28.423Z,100779.78
2018-09-23T06:07:56.713Z,100781.11
2018-09-23T06:10:25.048Z,100777.69
2018-09-23T06:12:53.342Z,100767.86
2018-09-23T06:15:21.606Z,100765.30
2018-09-23T06:17:49.888Z,100755.87
2018-09-23T06:20:18.117Z,100761.01
2018-09-23T06:22:46.360Z,100767.00
2018-09-23T06:25:14.666Z,100763.14
2018-09-23T06:27:42.897Z,100758.44
2018-09-23T06:30:11.157Z,100754.60
2018-09-23T06:32:39.431Z,100741.30
2018-09-23T06:35:07.689Z,100741.75
2018-09-23T06:37:35.932Z,100740.48
2018-09-23T06:40:04.237Z,100734.03
2018-09-23T06:42:32.486Z,100730.61
2018-09-23T06:45:00.745Z,100737.47
2018-09-23T06:47:28.982Z,100738.73
2018-09-23T06:49:57.224Z,100745.14
2018-09-23T06:52:25.481Z,100744.28
2018-09-23T06:54:53.743Z,100746.90
2018-09-23T06:57:22.033Z,100731.92
2018-09-23T06:59:50.377Z,100730.61
2018-09-23T07:02:18.603Z,100721.62
2018-09-23T07:04:46.892Z,100726.74
2018-09-23T07:07:15.120Z,100746.49
2018-09-23T07:09:43.377Z,100750.33
2018-09-23T07:12:11.625Z,100749.89
2018-09-23T07:14:39.930Z,100748.61
2018-09-23T07:17:08.254Z,100751.19
2018-09-23T07:19:36.536Z,100756.34
2018-09-23T07:22:05.893Z,100759.34
2018-09-23T07:24:34.173Z,100757.61
2018-09-23T07:27:02.415Z,100752.92
2018-09-23T07:29:31.397Z,100740.92
2018-09-23T07:31:59.636Z,100727.65
2018-09-23T07:34:27.904Z,100713.07
2018-09-23T07:36:56.183Z,100701.50
2018-09-23T07:39:24.488Z,100710.09
2018-09-23T07:41:52.729Z,100710.09
2018-09-23T07:44:20.981Z,100702.80
2018-09-23T07:46:49.217Z,100698.49
2018-09-23T07:49:17.677Z,100699.36
2018-09-23T07:51:45.908Z,100695.06
2018-09-23T07:54:14.165Z,100697.66
2018-09-23T07:56:42.503Z,100696.80
2018-09-23T07:59:10.743Z,100701.09
2018-09-23T08:01:38.981Z,100696.38
2018-09-23T08:04:07.295Z,100687.36
2018-09-23T08:06:35.528Z,100674.08
2018-09-23T08:09:04.444Z,100683.09
2018-09-23T08:11:32.714Z,100669.36
2018-09-23T08:14:01.204Z,100666.81
2018-09-23T08:16:29.276Z,100674.08
2018-09-23T08:18:57.553Z,100668.07
2018-09-23T08:21:25.847Z,100679.20
2018-09-23T08:23:54.226Z,100674.50
2018-09-23T08:26:22.501Z,100668.50
2018-09-23T08:28:50.756Z,100670.64
2018-09-23T08:31:19.045Z,100667.64
2018-09-23T08:33:47.305Z,100670.64
2018-09-23T08:36:15.668Z,100660.37
2018-09-23T08:38:43.953Z,100656.94
2018-09-23T08:41:12.225Z,100649.65
2018-09-23T08:43:40.492Z,100641.08
2018-09-23T08:46:08.773Z,100626.06
2018-09-23T08:48:37.058Z,100641.09
2018-09-23T08:51:05.380Z,100634.66
2018-09-23T08:53:34.036Z,100643.22
2018-09-23T08:56:02.343Z,100642.80
2018-09-23T08:58:31.824Z,100637.66
2018-09-23T09:01:00.730Z,100634.22
2018-09-23T09:03:29.359Z,100635.94
2018-09-23T09:05:58.340Z,100632.95
2018-09-23T09:08:27.249Z,100621.38
2018-09-23T09:10:56.329Z,100605.09
2018-09-23T09:13:25.432Z,100589.23
2018-09-23T09:15:54.294Z,100587.53
2018-09-23T09:18:23.057Z,100573.84
2018-09-23T09:20:52.490Z,100576.80
2018-09-23T09:23:21.585Z,100588.39
2018-09-23T09:25:50.534Z,100596.54
2018-09-23T09:28:18.937Z,100591.83
2018-09-23T09:30:48.123Z,100587.09
2018-09-23T09:33:16.487Z,100575.96
2018-09-23T09:35:44.739Z,100563.95
2018-09-23T09:38:13.029Z,100556.22
2018-09-23T09:40:41.516Z,100554.89
2018-09-23T09:43:09.797Z,100554.47
2018-09-23T09:45:38.117Z,100543.77
2018-09-23T09:48:06.371Z,100543.35
2018-09-23T09:50:34.826Z,100535.66
2018-09-23T09:53:03.118Z,100545.92
2018-09-23T09:55:31.471Z,100545.94
2018-09-23T09:57:59.677Z,100545.05
2018-09-23T10:00:35.117Z,100551.49
2018-09-23T10:03:04.564Z,100543.41
2018-09-23T10:05:32.893Z,100529.68
2018-09-23T10:08:01.143Z,100521.97
2018-09-23T10:10:29.452Z,100518.97
2018-09-23T10:12:57.857Z,100512.54
2018-09-23T10:15:26.881Z,100503.08
2018-09-23T10:17:55.136Z,100520.69
2018-09-23T10:20:24.490Z,100518.57
2018-09-23T10:22:53.267Z,100519.86
2018-09-23T10:25:21.534Z,100538.30
2018-09-23T10:27:49.809Z,100528.02
2018-09-23T10:30:18.040Z,100511.73
2018-09-23T10:32:46.429Z,100525.02
2018-09-23T10:35:14.696Z,100510.03
2018-09-23T10:37:42.964Z,100493.32
2018-09-23T10:40:11.244Z,100480.04
2018-09-23T10:42:39.521Z,100487.30
2018-09-23T10:45:07.785Z,100478.33
2018-09-23T10:47:37.170Z,100475.32
2018-09-23T10:50:05.510Z,100480.02
2018-09-23T10:52:33.817Z,100493.68
2018-09-23T10:55:02.193Z,100504.38
2018-09-23T10:57:30.456Z,100515.47
2018-09-23T10:59:58.745Z,100510.58
2018-09-23T11:02:27.288Z,100494.82
2018-09-23T11:04:55.540Z,100496.12
2018-09-23T11:07:23.856Z,100486.65
2018-09-23T11:09:52.226Z,100498.66
2018-09-23T11:12:20.456Z,100488.79
2018-09-23T11:14:48.933Z,100492.87
2018-09-23T11:17:17.188Z,100487.48
2018-09-23T11:19:45.456Z,100493.01
2018-09-23T11:22:13.740Z,100488.38
2018-09-23T11:24:41.987Z,100498.61
2018-09-23T11:27:12.137Z,100489.20
2018-09-23T11:29:40.381Z,100479.88
2018-09-23T11:32:08.677Z,100493.08
2018-09-23T11:34:37.522Z,100488.86
2018-09-23T11:37:05.832Z,100467.47
2018-09-23T11:39:34.099Z,100467.46
2018-09-23T11:42:02.380Z,100462.78
2018-09-23T11:44:32.831Z,100347.12
2018-09-23T11:47:01.832Z,100454.67
2018-09-23T11:49:30.093Z,100452.94
2018-09-23T11:51:58.429Z,100455.99
2018-09-23T11:54:27.839Z,100451.26
2018-09-23T11:56:57.009Z,100426.70
2018-09-23T11:59:25.287Z,100437.10
2018-09-23T12:01:55.210Z,100443.08
2018-09-23T12:04:23.542Z,100440.06
2018-09-23T12:06:51.785Z,100429.23
2018-09-23T12:09:20.057Z,100407.44
2018-09-23T12:11:48.320Z,100383.95
2018-09-23T12:14:16.609Z,100365.70
2018-09-23T12:16:44.873Z,100360.45
2018-09-23T12:19:13.133Z,100372.44
2018-09-23T12:21:41.405Z,100378.95
2018-09-23T12:24:09.693Z,100370.33
2018-09-23T12:26:38.152Z,100358.67
2018-09-23T12:29:06.782Z,100333.93
2018-09-23T12:31:35.169Z,100330.97
2018-09-23T12:34:03.856Z,100340.78
2018-09-23T12:36:32.140Z,100336.08
2018-09-23T12:39:00.445Z,100335.27
2018-09-23T12:41:28.745Z,100351.09
2018-09-23T12:43:57.123Z,100356.33
2018-09-23T12:46:25.483Z,100363.55
2018-09-23T12:48:53.796Z,100369.26
2018-09-23T12:51:22.092Z,100374.55
2018-09-23T12:53:50.390Z,100392.02
2018-09-23T12:56:18.835Z,100343.93
2018-09-23T12:58:47.193Z,100298.53
2018-09-23T13:01:15.941Z,100293.58
2018-09-23T13:03:44.384Z,100298.80
2018-09-23T13:06:12.665Z,100299.16
2018-09-23T13:08:40.954Z,100270.60
2018-09-23T13:11:09.219Z,100268.34
2018-09-23T13:13:37.518Z,100251.74
2018-09-23T13:16:06.601Z,100266.16
2018-09-23T13:18:34.960Z,100280.55
2018-09-23T13:21:03.518Z,100331.67
2018-09-23T13:23:31.784Z,100382.54
2018-09-23T13:26:00.097Z,100400.98
2018-09-23T13:28:28.421Z,100377.70
2018-09-23T13:30:56.700Z,100336.27
2018-09-23T13:33:24.953Z,100331.30
2018-09-23T13:35:53.377Z,100353.63
2018-09-23T13:38:21.639Z,100356.92
2018-09-23T13:40:49.874Z,100338.50
2018-09-23T13:43:18.164Z,100325.00
2018-09-23T13:45:46.428Z,100309.23
2018-09-23T13:48:14.698Z,100308.00
2018-09-23T13:50:42.936Z,100301.22
2018-09-23T13:53:11.243Z,100307.20
2018-09-23T13:55:39.500Z,100316.56
2018-09-23T13:58:07.775Z,100319.19
2018-09-23T14:00:36.016Z,100332.02
2018-09-23T14:03:04.312Z,100348.58
2018-09-23T14:05:33.113Z,100360.04
2018-09-23T14:08:01.379Z,100301.67
2018-09-23T14:10:29.671Z,100305.78
2018-09-23T14:12:57.985Z,100349.64
2018-09-23T14:15:26.271Z,100345.45
2018-09-23T14:17:54.521Z,100346.47
2018-09-23T14:20:22.785Z,100337.01
2018-09-23T14:22:51.045Z,100335.66
2018-09-23T14:25:19.324Z,100346.12
2018-09-23T14:27:47.584Z,100354.19
2018-09-23T14:30:15.909Z,100353.55
2018-09-23T14:32:44.174Z,100364.83
2018-09-23T14:35:12.449Z,100382.59
2018-09-23T14:37:40.724Z,100393.20
2018-09-23T14:40:09.041Z,100379.36
2018-09-23T14:42:37.277Z,100390.22
2018-09-23T14:45:06.065Z,100358.77
2018-09-23T14:47:34.336Z,100352.71
2018-09-23T14:50:02.630Z,100312.20
2018-09-23T14:52:31.928Z,100305.33
2018-09-23T14:55:00.225Z,100301.44
2018-09-23T14:57:28.488Z,100352.12
2018-09-23T15:00:03.064Z,100381.87
2018-09-23T15:02:25.029Z,100371.28
2018-09-23T15:04:53.302Z,100380.24
2018-09-23T15:07:21.629Z,100373.39
2018-09-23T15:09:50.114Z,100415.27
2018-09-23T15:12:18.373Z,100418.30
2018-09-23T15:14:46.719Z,100401.62
2018-09-23T15:17:14.966Z,100381.82
2018-09-23T15:19:43.342Z,100383.30
2018-09-23T15:22:12.189Z,100394.83
2018-09-23T15:24:40.481Z,100382.84
2018-09-23T15:27:09.777Z,100375.63
2018-09-23T15:29:38.050Z,100383.08
2018-09-23T15:32:06.359Z,100380.32
2018-09-23T15:34:34.641Z,100384.31
2018-09-23T15:37:02.885Z,100393.84
2018-09-23T15:39:31.145Z,100422.47
2018-09-23T15:41:59.413Z,100441.97
2018-09-23T15:44:27.661Z,100450.14
2018-09-23T15:46:55.898Z,100447.70
2018-09-23T15:49:24.184Z,100435.34
2018-09-23T15:51:52.445Z,100435.28
2018-09-23T15:54:20.701Z,100459.21
2018-09-23T15:56:48.958Z,100482.02
2018-09-23T15:59:17.232Z,100499.91
2018-09-23T16:01:46.842Z,100499.01
2018-09-23T16:04:15.085Z,100503.35
2018-09-23T16:06:43.398Z,100499.58
2018-09-23T16:09:11.653Z,100483.75
2018-09-23T16:11:40.162Z,100503.30
2018-09-23T16:14:08.633Z,100510.31
2018-09-23T16:16:36.936Z,100512.97
2018-09-23T16:19:05.168Z,100518.53
2018-09-23T16:21:33.473Z,100533.60
2018-09-23T16:24:01.769Z,100529.72
2018-09-23T16:26:31.158Z,100526.64
2018-09-23T16:28:59.505Z,100527.44
2018-09-23T16:31:27.857Z,100526.56
2018-09-23T16:33:56.241Z,100517.12
2018-09-23T16:36:24.555Z,100526.87
2018-09-23T16:38:53.009Z,100536.20
2018-09-23T16:41:21.285Z,100553.13
2018-09-23T16:43:49.556Z,100565.33
2018-09-23T16:46:17.876Z,100574.00
2018-09-23T16:48:46.190Z,100580.00
2018-09-23T16:51:14.473Z,100591.20
2018-09-23T16:53:42.733Z,100589.39
2018-09-23T16:56:11.056Z,100597.41
2018-09-23T16:58:39.311Z,100599.41
2018-09-23T17:01:07.624Z,100615.12
2018-09-23T17:03:36.024Z,100620.48
2018-09-23T17:06:04.448Z,100634.88
2018-09-23T17:08:32.804Z,100635.89
2018-09-23T17:11:01.147Z,100642.05
2018-09-23T17:13:29.452Z,100641.27
2018-09-23T17:15:58.570Z,100646.03
2018-09-23T17:18:27.041Z,100636.60
2018-09-23T17:20:55.422Z,100658.90
2018-09-23T17:23:23.738Z,100680.52
2018-09-23T17:25:52.058Z,100681.17
2018-09-23T17:28:20.330Z,100685.43
2018-09-23T17:30:48.684Z,100691.88
2018-09-23T17:33:16.987Z,100700.48
2018-09-23T17:35:46.183Z,100704.59
2018-09-23T17:38:14.479Z,100712.80
2018-09-23T17:40:42.786Z,100714.64
2018-09-23T17:43:11.140Z,100724.57
2018-09-23T17:45:39.441Z,100731.05
2018-09-23T17:48:07.821Z,100731.77
2018-09-23T17:50:37.286Z,100740.31
2018-09-23T17:53:05.593Z,100746.02
2018-09-23T17:55:34.073Z,100756.67
2018-09-23T17:58:02.341Z,100761.30
2018-09-23T18:00:30.688Z,100760.95
2018-09-23T18:02:59.469Z,100776.50
2018-09-23T18:05:28.196Z,100768.72
2018-09-23T18:07:56.899Z,100796.13
2018-09-23T18:10:25.173Z,100800.06
2018-09-23T18:12:53.530Z,100796.45
2018-09-23T18:15:21.853Z,100798.10
2018-09-23T18:17:50.292Z,100787.17
2018-09-23T18:20:18.566Z,100785.03
2018-09-23T18:22:46.947Z,100767.27
2018-09-23T18:25:15.285Z,100761.60
2018-09-23T18:27:43.606Z,100774.62
2018-09-23T18:30:11.954Z,100775.61
2018-09-23T18:32:40.225Z,100783.81
2018-09-23T18:35:08.897Z,100795.73
2018-09-23T18:37:38.249Z,100817.92
2018-09-23T18:40:07.136Z,100835.73
2018-09-23T18:42:35.632Z,100852.95
2018-09-23T18:45:04.050Z,100863.44
2018-09-23T18:47:32.337Z,100872.38
2018-09-23T18:50:00.703Z,100876.63
2018-09-23T18:52:28.998Z,100889.77
2018-09-23T18:55:02.674Z,100895.27
2018-09-23T18:57:31.201Z,100907.91
2018-09-23T19:00:00.217Z,100917.53
2018-09-23T19:02:28.875Z,100917.44
2018-09-23T19:04:57.222Z,100927.29
2018-09-23T19:07:25.584Z,100937.98
2018-09-23T19:09:53.848Z,100945.66
2018-09-23T19:12:22.301Z,100952.54
2018-09-23T19:14:50.757Z,100955.48
2018-09-23T19:17:19.218Z,100957.28
2018-09-23T19:19:53.171Z,100968.94
2018-09-23T19:22:26.685Z,100973.09
2018-09-23T19:24:55.001Z,100974.06
2018-09-23T19:27:23.340Z,101000.45
2018-09-23T19:29:51.646Z,101021.34
2018-09-23T19:32:20.728Z,101018.75
2018-09-23T19:34:49.428Z,101007.50
2018-09-23T19:37:17.702Z,101025.21
2018-09-23T19:39:45.988Z,101035.64
2018-09-23T19:42:14.633Z,101039.19
2018-09-23T19:44:42.886Z,101054.30
2018-09-23T19:47:11.593Z,101045.98
2018-09-23T19:49:40.325Z,101050.77
2018-09-23T19:52:08.729Z,101058.13
2018-09-23T19:54:37.061Z,101062.38
2018-09-23T19:57:05.433Z,101066.59
2018-09-23T19:59:33.689Z,101073.44
2018-09-23T20:02:01.953Z,101086.19
2018-09-23T20:04:30.240Z,101093.04
2018-09-23T20:06:58.556Z,101096.42
2018-09-23T20:09:26.825Z,101103.36
2018-09-23T20:11:55.176Z,101106.38
2018-09-23T20:14:23.449Z,101115.00
2018-09-23T20:16:51.722Z,101115.13
2018-09-23T20:19:20.029Z,101117.39
2018-09-23T20:21:48.289Z,101124.77
2018-09-23T20:24:17.047Z,101133.66
2018-09-23T20:26:45.386Z,101134.98
2018-09-23T20:29:13.692Z,101138.86
2018-09-23T20:31:43.005Z,101149.85
2018-09-23T20:34:11.285Z,101150.62
2018-09-23T20:36:39.580Z,101162.20
2018-09-23T20:39:08.753Z,101158.52
2018-09-23T20:41:37.000Z,101157.11
2018-09-23T20:44:05.307Z,101160.99
2018-09-23T20:46:33.548Z,101165.53
2018-09-23T20:49:01.872Z,101166.23
2018-09-23T20:51:30.174Z,101174.93
2018-09-23T20:53:58.521Z,101184.67
2018-09-23T20:56:27.378Z,101183.39
2018-09-23T20:58:55.669Z,101185.59
2018-09-23T21:01:23.936Z,101199.52
2018-09-23T21:03:52.214Z,101204.69
2018-09-23T21:06:20.491Z,101205.64
2018-09-23T21:08:48.777Z,101210.67
2018-09-23T21:11:17.028Z,101209.34
2018-09-23T21:13:45.301Z,101212.23
2018-09-23T21:16:13.605Z,101221.83
2018-09-23T21:18:41.912Z,101230.42
2018-09-23T21:21:10.153Z,101232.89
2018-09-23T21:23:38.416Z,101234.98
2018-09-23T21:26:06.669Z,101243.79
2018-09-23T21:28:34.945Z,101246.70
2018-09-23T21:31:03.188Z,101256.80
2018-09-23T21:33:31.429Z,101261.91
2018-09-23T21:35:59.705Z,101265.08
2018-09-23T21:38:27.993Z,101261.74
2018-09-23T21:40:56.262Z,101275.41
2018-09-23T21:43:24.500Z,101280.80
2018-09-23T21:45:52.989Z,101284.47
2018-09-23T21:48:21.297Z,101282.32
2018-09-23T21:50:50.045Z,101295.83
2018-09-23T21:53:18.330Z,101296.34
2018-09-23T21:55:46.602Z,101299.31
2018-09-23T21:58:14.836Z,101303.19
2018-09-23T22:00:43.889Z,101314.70
2018-09-23T22:03:13.406Z,101323.20
2018-09-23T22:05:41.625Z,101329.42
2018-09-23T22:08:10.632Z,101328.70
2018-09-23T22:10:38.882Z,101328.77
2018-09-23T22:13:07.553Z,101331.17
2018-09-23T22:15:35.821Z,101334.19
2018-09-23T22:18:04.096Z,101338.38
2018-09-23T22:20:32.374Z,101350.05
2018-09-23T22:23:00.613Z,101350.48
2018-09-23T22:25:28.905Z,101349.17
2018-09-23T22:27:57.177Z,101351.42
2018-09-23T22:30:25.448Z,101360.69
2018-09-23T22:32:53.705Z,101368.65
2018-09-23T22:35:22.805Z,101369.06
2018-09-23T22:37:51.067Z,101372.78
2018-09-23T22:40:19.365Z,101376.27
2018-09-23T22:42:47.613Z,101383.94
2018-09-23T22:45:15.917Z,101386.91
2018-09-23T22:47:44.200Z,101383.73
2018-09-23T22:50:12.473Z,101388.44
2018-09-23T22:52:40.772Z,101398.48
2018-09-23T22:55:09.048Z,101397.22
2018-09-23T22:57:37.313Z,101413.88
2018-09-23T23:00:05.621Z,101411.90
2018-09-23T23:02:33.896Z,101419.55
2018-09-23T23:05:02.181Z,101419.73
2018-09-23T23:07:30.432Z,101430.64
2018-09-23T23:09:58.733Z,101432.96
2018-09-23T23:12:27.002Z,101441.48
2018-09-23T23:14:55.272Z,101439.45
2018-09-23T23:17:23.525Z,101435.44
2018-09-23T23:19:51.776Z,101451.61
2018-09-23T23:22:20.021Z,101456.30
2018-09-23T23:24:48.280Z,101463.66
2018-09-23T23:27:16.521Z,101463.22
2018-09-23T23:29:44.809Z,101469.95
2018-09-23T23:32:13.093Z,101471.48
2018-09-23T23:34:41.337Z,101473.11
2018-09-23T23:37:09.605Z,101477.21
2018-09-23T23:39:37.869Z,101480.50
2018-09-23T23:42:06.166Z,101484.82
2018-09-23T23:44:34.413Z,101492.94
2018-09-23T23:47:02.674Z,101504.84
2018-09-23T23:49:30.925Z,101502.13
2018-09-23T23:51:59.188Z,101506.09
2018-09-23T23:54:27.425Z,101514.63
2018-09-23T23:56:55.708Z,101517.94
2018-09-23T23:59:23.961Z,101517.59
